Terminal Aerodrome Forecast
Issued by NWS

Home | Current Version | Previous Version | Text Only | Print | Product List | Glossary On
Versions: 1 2 3 4 5 6 7 8 9 10 11 12 13 14 15 16 17 18 19 20 21 22 23 24 25 26 27
000
FTAK31 PANC 272341
TAFADQ
TAF
PADQ 272341Z 2800/2824 28022G35KT P6SM VA FEW040 BKN200
     FM280300 30025G40KT P6SM VA FEW040 SCT200
     FM281500 33015G25KT P6SM SKC=

USA.gov is the U.S. government's official web portal to all federal, state and local government web resources and services.